Terminal Aerodrome Forecast
Issued by NWS

Home | Current Version | Previous Version | Graphics & Text | Print | Product List | Glossary On
Versions: 1 2 3 4 5 6 7 8 9 10 11 12 13 14 15 16 17 18 19
000
FTUS43 KGRB 211700
TAFCWA
TAF
KCWA 211730Z 2118/2218 28007KT P6SM SCT025
      TEMPO 2118/2120 6SM HZ BKN025
     FM212000 31012KT P6SM SCT020 BKN035
     FM212300 31013G21KT P6SM SCT025
     FM220600 31010G20KT P6SM BKN025
     FM221300 33015G22KT P6SM SCT030=

USA.gov is the U.S. government's official web portal to all federal, state and local government web resources and services.